createdAt,value
2022-11-26T00:01:01.442Z,4.50
2022-11-26T00:03:28.067Z,4.60
2022-11-26T00:05:56.684Z,4.60
2022-11-26T00:08:33.850Z,4.70
2022-11-26T00:11:01.467Z,4.80
2022-11-26T00:13:30.424Z,4.80
2022-11-26T00:15:57.350Z,4.80
2022-11-26T00:18:26.581Z,4.70
2022-11-26T00:20:59.716Z,4.70
2022-11-26T00:23:28.359Z,4.60
2022-11-26T00:26:01.301Z,4.60
2022-11-26T00:28:32.191Z,4.50
2022-11-26T00:31:15.218Z,4.50
2022-11-26T00:33:42.180Z,4.50
2022-11-26T00:36:18.603Z,4.40
2022-11-26T00:38:47.370Z,4.40
2022-11-26T00:41:18.113Z,4.50
2022-11-26T00:43:45.693Z,4.50
2022-11-26T00:46:20.436Z,4.50
2022-11-26T00:48:47.153Z,4.40
2022-11-26T00:51:18.908Z,4.40
2022-11-26T00:53:46.957Z,4.40
2022-11-26T00:56:19.627Z,4.40
2022-11-26T00:58:48.015Z,4.50
2022-11-26T01:01:23.957Z,4.60
2022-11-26T01:03:51.141Z,4.60
2022-11-26T01:06:24.093Z,4.70
2022-11-26T01:08:51.190Z,4.70
2022-11-26T01:11:21.349Z,4.80
2022-11-26T01:13:50.054Z,4.70
2022-11-26T01:16:24.295Z,4.90
2022-11-26T01:18:53.550Z,4.90
2022-11-26T01:21:21.561Z,4.90
2022-11-26T01:23:48.296Z,4.90
2022-11-26T01:26:17.838Z,4.80
2022-11-26T01:28:45.168Z,4.80
2022-11-26T01:31:17.634Z,4.70
2022-11-26T01:33:45.133Z,4.80
2022-11-26T01:36:29.486Z,4.80
2022-11-26T01:39:03.207Z,4.80
2022-11-26T01:41:57.093Z,4.80
2022-11-26T01:44:27.171Z,4.80
2022-11-26T01:46:55.000Z,4.80
2022-11-26T01:49:31.566Z,4.80
2022-11-26T01:52:24.778Z,4.70
2022-11-26T01:54:53.360Z,4.80
2022-11-26T01:57:28.219Z,4.90
2022-11-26T02:00:01.197Z,4.90
2022-11-26T02:02:29.714Z,4.90
2022-11-26T02:05:04.974Z,4.90
2022-11-26T02:07:31.890Z,4.80
2022-11-26T02:09:58.566Z,4.80
2022-11-26T02:12:25.385Z,4.60
2022-11-26T02:14:52.090Z,4.50
2022-11-26T02:17:36.338Z,4.40
2022-11-26T02:20:03.017Z,4.30
2022-11-26T02:22:38.500Z,4.30
2022-11-26T02:25:11.024Z,4.20
2022-11-26T02:27:47.387Z,4.10
2022-11-26T02:30:16.460Z,4.10
2022-11-26T02:32:54.580Z,4.10
2022-11-26T02:35:40.629Z,4.00
2022-11-26T02:38:15.401Z,4.00
2022-11-26T02:40:42.059Z,3.90
2022-11-26T02:43:08.717Z,3.80
2022-11-26T02:45:38.862Z,3.70
2022-11-26T02:48:10.740Z,3.60
2022-11-26T02:50:47.163Z,3.60
2022-11-26T02:53:15.662Z,3.60
2022-11-26T02:55:47.057Z,3.60
2022-11-26T02:58:14.231Z,3.70
2022-11-26T03:00:42.641Z,3.50
2022-11-26T03:03:25.915Z,3.50
2022-11-26T03:05:58.965Z,3.50
2022-11-26T03:08:27.291Z,3.50
2022-11-26T03:10:53.923Z,3.50
2022-11-26T03:13:20.563Z,3.40
2022-11-26T03:15:47.212Z,3.40
2022-11-26T03:18:14.354Z,3.40
2022-11-26T03:20:41.066Z,3.50
2022-11-26T03:23:07.696Z,3.40
2022-11-26T03:25:34.770Z,3.40
2022-11-26T03:28:01.735Z,3.40
2022-11-26T03:30:28.678Z,3.50
2022-11-26T03:32:55.376Z,3.40
2022-11-26T03:35:22.052Z,3.40
2022-11-26T03:37:48.755Z,3.30
2022-11-26T03:40:16.725Z,3.20
2022-11-26T03:42:44.129Z,3.20
2022-11-26T03:45:11.938Z,3.20
2022-11-26T03:47:39.165Z,3.10
2022-11-26T03:50:07.356Z,3.00
2022-11-26T03:52:34.227Z,3.00
2022-11-26T03:55:00.880Z,3.00
2022-11-26T03:57:27.755Z,2.90
2022-11-26T03:59:54.380Z,2.90
2022-11-26T04:02:21.067Z,2.80
2022-11-26T04:04:47.762Z,2.80
2022-11-26T04:07:14.462Z,2.80
2022-11-26T04:09:41.154Z,3.00
2022-11-26T04:12:07.994Z,2.70
2022-11-26T04:14:34.601Z,2.60
